createdAt,value
2022-09-26T00:00:35.988Z,99174.91
2022-09-26T00:05:39.012Z,99165.69
2022-09-26T00:10:40.813Z,99154.75
2022-09-26T00:15:42.581Z,99158.94
2022-09-26T00:20:44.384Z,99147.16
2022-09-26T00:25:47.745Z,99149.69
2022-09-26T00:30:49.936Z,99149.69
2022-09-26T00:35:53.356Z,99148.88
2022-09-26T00:40:55.591Z,99142.13
2022-09-26T00:46:06.447Z,99128.75
2022-09-26T00:51:10.000Z,99134.59
2022-09-26T00:56:18.975Z,99142.19
2022-09-26T01:01:22.618Z,99143.09
2022-09-26T01:06:24.379Z,99132.16
2022-09-26T01:11:28.253Z,99127.97
2022-09-26T01:16:31.900Z,99123.75
2022-09-26T01:21:52.206Z,99123.75
2022-09-26T01:27:07.841Z,99128.00
2022-09-26T01:32:49.567Z,99125.53
2022-09-26T01:38:24.718Z,99112.09
2022-09-26T01:43:45.757Z,99112.94
2022-09-26T01:48:56.155Z,99105.41
2022-09-26T01:54:21.804Z,99094.47
2022-09-26T01:59:34.434Z,99094.47
2022-09-26T02:04:42.854Z,99090.25
2022-09-26T02:09:50.955Z,99086.94
2022-09-26T02:14:56.733Z,99086.94
2022-09-26T02:20:01.497Z,99072.66
2022-09-26T02:25:04.960Z,99076.03
2022-09-26T02:30:07.983Z,99072.78
2022-09-26T02:35:30.010Z,99072.69
2022-09-26T02:40:42.307Z,99071.03
2022-09-26T02:45:52.274Z,99067.72
2022-09-26T02:51:26.834Z,99072.78
2022-09-26T02:56:34.818Z,99066.06
2022-09-26T03:01:54.242Z,99066.94
2022-09-26T03:07:04.370Z,99062.72
2022-09-26T03:12:07.862Z,99062.75
2022-09-26T03:17:10.205Z,99068.63
2022-09-26T03:22:14.382Z,99065.28
2022-09-26T03:27:16.954Z,99067.81
2022-09-26T03:32:20.304Z,99062.84
2022-09-26T03:37:23.334Z,99063.66
2022-09-26T03:42:25.661Z,99061.97
2022-09-26T03:47:29.475Z,99056.91
2022-09-26T03:52:31.694Z,99053.50
2022-09-26T03:57:33.384Z,99066.13
2022-09-26T04:02:49.302Z,99057.75
2022-09-26T04:08:06.783Z,99051.84
2022-09-26T04:13:10.553Z,99055.22
2022-09-26T04:18:12.160Z,99056.13
2022-09-26T04:23:14.312Z,99049.41
2022-09-26T04:28:16.265Z,99051.94
2022-09-26T04:33:17.834Z,99041.00
2022-09-26T04:38:25.127Z,99043.56
2022-09-26T04:43:26.731Z,99044.38
2022-09-26T04:48:28.635Z,99041.84
2022-09-26T04:53:35.962Z,99039.34
2022-09-26T04:58:46.820Z,99042.72
2022-09-26T05:03:49.537Z,99040.22
2022-09-26T05:08:52.186Z,99035.16
2022-09-26T05:14:02.722Z,99035.16
2022-09-26T05:19:05.188Z,99037.69
2022-09-26T05:24:29.196Z,99041.03
2022-09-26T05:29:31.006Z,99047.81
2022-09-26T05:34:37.238Z,99041.06
2022-09-26T05:39:58.948Z,99040.22
2022-09-26T05:45:03.394Z,99041.88
2022-09-26T05:50:09.970Z,99040.16
2022-09-26T05:55:14.012Z,99032.44
2022-09-26T06:00:35.618Z,99040.81
2022-09-26T06:05:38.080Z,99042.44
2022-09-26T06:10:47.085Z,99044.94
2022-09-26T06:15:49.588Z,99043.13
2022-09-26T06:20:51.329Z,99043.91
2022-09-26T06:25:53.175Z,99041.31
2022-09-26T06:30:55.521Z,99042.94
2022-09-26T06:36:17.084Z,99046.25
2022-09-26T06:41:19.781Z,99047.75
2022-09-26T06:46:21.753Z,99052.66
2022-09-26T06:51:31.899Z,99052.47
2022-09-26T06:56:33.558Z,99048.94
2022-09-26T07:01:35.334Z,99050.50
2022-09-26T07:06:58.370Z,99043.63
2022-09-26T07:12:17.174Z,99046.88
2022-09-26T07:17:19.118Z,99053.94
2022-09-26T07:22:44.766Z,99060.38
2022-09-26T07:27:51.975Z,99064.72
2022-09-26T07:33:03.165Z,99064.72
2022-09-26T07:38:18.847Z,99065.66
2022-09-26T07:43:30.783Z,99070.63
2022-09-26T07:49:02.518Z,99062.38
2022-09-26T07:54:35.207Z,99065.66
2022-09-26T07:59:55.339Z,99067.91
2022-09-26T08:05:26.323Z,99059.34
2022-09-26T08:10:28.121Z,99069.66
2022-09-26T08:15:47.978Z,99070.66
2022-09-26T08:20:57.792Z,99072.78
2022-09-26T08:26:05.089Z,99063.69
2022-09-26T08:31:18.163Z,99067.38
2022-09-26T08:36:21.538Z,99070.56
2022-09-26T08:41:54.700Z,99073.44
2022-09-26T08:47:43.870Z,99076.34
2022-09-26T08:53:04.233Z,99079.13
2022-09-26T08:58:29.052Z,99068.00
2022-09-26T09:03:58.223Z,99065.13
2022-09-26T09:09:00.024Z,99059.06
2022-09-26T09:14:40.642Z,99051.56
2022-09-26T09:20:26.271Z,99060.56
2022-09-26T09:25:50.665Z,99057.00
2022-09-26T09:31:01.131Z,99042.72
2022-09-26T09:36:08.470Z,99041.16
2022-09-26T09:41:17.352Z,99036.25
2022-09-26T09:46:34.742Z,99037.16
2022-09-26T09:52:00.961Z,99033.84
2022-09-26T09:57:37.584Z,99031.03
2022-09-26T10:03:03.607Z,99029.81
2022-09-26T10:08:18.394Z,99039.72
2022-09-26T10:13:49.656Z,99046.50
2022-09-26T10:19:04.187Z,99034.66
2022-09-26T10:24:38.745Z,99022.66
2022-09-26T10:29:45.338Z,99030.00
2022-09-26T10:35:21.257Z,99036.09
2022-09-26T10:40:55.343Z,99031.78
2022-09-26T10:46:16.536Z,99019.06
2022-09-26T10:51:45.475Z,99019.91
2022-09-26T10:56:54.272Z,99008.63
2022-09-26T11:01:58.961Z,98995.91
2022-09-26T11:07:02.107Z,99002.56
2022-09-26T11:12:25.430Z,98992.72
2022-09-26T11:17:50.525Z,98991.66
2022-09-26T11:23:16.246Z,98985.47
2022-09-26T11:28:26.874Z,98986.78
2022-09-26T11:33:49.616Z,98981.22
2022-09-26T11:39:18.532Z,98984.25
2022-09-26T11:44:32.150Z,98975.47
2022-09-26T11:50:52.333Z,98966.00
2022-09-26T11:56:23.129Z,98952.31
2022-09-26T12:02:01.960Z,98958.03
2022-09-26T12:07:16.344Z,98951.59
2022-09-26T12:12:47.248Z,98951.59
2022-09-26T12:17:54.007Z,98942.34
2022-09-26T12:23:21.330Z,98931.00
2022-09-26T12:28:50.552Z,98937.53
2022-09-26T12:33:58.259Z,98929.22
2022-09-26T12:39:36.429Z,98914.34
2022-09-26T12:45:13.542Z,98916.94
2022-09-26T12:50:29.626Z,98906.81
2022-09-26T12:55:34.156Z,98899.53
2022-09-26T13:00:45.709Z,98900.53
2022-09-26T13:06:25.582Z,98895.69
2022-09-26T13:11:48.179Z,98890.50
2022-09-26T13:16:57.547Z,98881.16
2022-09-26T13:22:37.782Z,98866.97
2022-09-26T13:27:44.151Z,98868.16
2022-09-26T13:32:47.557Z,98868.47
2022-09-26T13:38:00.666Z,98863.53
2022-09-26T13:43:25.972Z,98860.88
2022-09-26T13:48:40.045Z,98865.97
2022-09-26T13:54:16.692Z,98861.69
2022-09-26T13:59:18.180Z,98869.66
2022-09-26T14:04:33.405Z,98867.50
2022-09-26T14:09:42.154Z,98858.97
2022-09-26T14:14:47.373Z,98848.84
2022-09-26T14:19:57.181Z,98838.84
2022-09-26T14:24:59.841Z,98835.78
2022-09-26T14:30:22.610Z,98843.19
2022-09-26T14:35:31.549Z,98831.09
2022-09-26T14:40:51.916Z,98823.31
2022-09-26T14:46:03.062Z,98811.09
2022-09-26T14:51:11.212Z,98815.16
2022-09-26T14:56:25.584Z,98810.88
2022-09-26T15:01:36.470Z,98801.66
2022-09-26T15:07:02.468Z,98798.53
2022-09-26T15:12:13.062Z,98790.03
2022-09-26T15:17:25.712Z,98789.38
2022-09-26T15:22:30.890Z,98792.09
2022-09-26T15:27:33.281Z,98783.78
2022-09-26T15:32:35.005Z,98778.00
2022-09-26T15:37:36.938Z,98780.84
2022-09-26T15:42:57.549Z,98776.41
2022-09-26T15:48:05.296Z,98781.09
2022-09-26T15:53:17.605Z,98784.91
2022-09-26T15:58:27.449Z,98777.81
2022-09-26T16:03:40.087Z,98784.88
2022-09-26T16:08:42.483Z,98774.56
2022-09-26T16:13:49.560Z,98776.44
2022-09-26T16:19:00.990Z,98769.19
2022-09-26T16:24:34.257Z,98775.69
2022-09-26T16:29:36.344Z,98772.72
2022-09-26T16:34:38.071Z,98767.22
2022-09-26T16:39:39.795Z,98771.03
2022-09-26T16:44:51.603Z,98761.25
2022-09-26T16:49:53.312Z,98772.97
2022-09-26T16:54:59.718Z,98773.28
2022-09-26T17:00:24.273Z,98772.81
2022-09-26T17:05:26.251Z,98769.78
2022-09-26T17:10:27.972Z,98768.47
2022-09-26T17:15:30.891Z,98775.53
2022-09-26T17:20:32.604Z,98781.44
2022-09-26T17:25:35.096Z,98778.97
2022-09-26T17:30:37.183Z,98781.44
2022-09-26T17:35:40.923Z,98788.22
2022-09-26T17:40:45.623Z,98786.72
2022-09-26T17:45:50.805Z,98784.25
2022-09-26T17:50:56.537Z,98788.66
2022-09-26T17:55:58.544Z,98780.69
2022-09-26T18:01:03.581Z,98795.91
2022-09-26T18:06:05.941Z,98789.25
2022-09-26T18:11:15.214Z,98782.78
2022-09-26T18:16:17.278Z,98782.25
2022-09-26T18:21:19.548Z,98789.16
2022-09-26T18:26:27.893Z,98778.31
2022-09-26T18:31:31.621Z,98775.88
2022-09-26T18:36:33.704Z,98780.19
2022-09-26T18:41:35.499Z,98779.38
2022-09-26T18:46:37.934Z,98778.59
2022-09-26T18:51:39.814Z,98775.41
2022-09-26T18:57:00.557Z,98772.06
2022-09-26T19:02:04.221Z,98773.94
2022-09-26T19:07:06.914Z,98772.44
2022-09-26T19:12:14.349Z,98769.22
2022-09-26T19:17:16.008Z,98768.44
2022-09-26T19:22:17.785Z,98761.84
2022-09-26T19:27:23.581Z,98776.09
2022-09-26T19:32:38.641Z,98776.19
2022-09-26T19:37:40.584Z,98782.06
2022-09-26T19:42:42.505Z,98778.00
2022-09-26T19:47:53.063Z,98778.06
2022-09-26T19:52:57.491Z,98786.47
2022-09-26T19:58:11.832Z,98786.56
2022-09-26T20:03:18.910Z,98776.47
2022-09-26T20:08:26.431Z,98772.41
2022-09-26T20:13:48.356Z,98767.34
2022-09-26T20:18:51.615Z,98759.84
2022-09-26T20:23:54.309Z,98765.00
2022-09-26T20:28:56.801Z,98765.25
2022-09-26T20:34:00.129Z,98763.66
2022-09-26T20:39:06.489Z,98754.38
2022-09-26T20:44:17.892Z,98741.97
2022-09-26T20:49:23.609Z,98747.25
2022-09-26T20:54:31.844Z,98733.84
2022-09-26T20:59:36.009Z,98726.44
2022-09-26T21:04:37.794Z,98727.41
2022-09-26T21:09:39.770Z,98717.28
2022-09-26T21:14:41.473Z,98710.69
2022-09-26T21:19:43.473Z,98705.56
2022-09-26T21:25:05.585Z,98714.84
2022-09-26T21:30:12.902Z,98693.75
2022-09-26T21:35:17.626Z,98692.88
2022-09-26T21:40:26.332Z,98686.06
2022-09-26T21:45:28.222Z,98683.66
2022-09-26T21:50:31.135Z,98681.94
2022-09-26T21:55:38.757Z,98681.84
2022-09-26T22:00:40.924Z,98676.78
2022-09-26T22:05:42.905Z,98668.31
2022-09-26T22:10:44.599Z,98653.13
2022-09-26T22:15:46.260Z,98653.13
2022-09-26T22:20:55.088Z,98656.44
2022-09-26T22:25:56.912Z,98647.16
2022-09-26T22:31:03.076Z,98629.44
2022-09-26T22:36:05.252Z,98627.75
2022-09-26T22:41:07.826Z,98623.53
2022-09-26T22:46:12.429Z,98617.56
2022-09-26T22:51:15.692Z,98607.44
2022-09-26T22:56:18.078Z,98606.66
2022-09-26T23:01:23.658Z,98603.28
2022-09-26T23:06:25.943Z,98597.47
2022-09-26T23:11:28.072Z,98589.22
2022-09-26T23:16:30.492Z,98582.03
2022-09-26T23:21:32.169Z,98576.94
2022-09-26T23:26:33.858Z,98567.69
2022-09-26T23:31:35.720Z,98571.97
2022-09-26T23:36:37.674Z,98554.41
2022-09-26T23:41:39.463Z,98544.81
2022-09-26T23:46:41.271Z,98523.88
2022-09-26T23:51:43.357Z,98517.84
2022-09-26T23:56:45.543Z,98522.25
